Time;durP1;ratioP1;P1;durP2;ratioP2;P2;SDS_P1;SDS_P2;PMS_P1;PMS_P2;Temp;Humidity;BMP_temperature;BMP_pressure;BME280_temperature;BME280_humidity;BME280_pressure;Samples;Min_cycle;Max_cycle;Signal;HPM_P1;HPM_P2
2022/01/14 00:01:50;;;;;;;30.80;13.65;;;4.60;97.00;;;;;;4886586;29;20104;-77
2022/01/14 00:04:17;;;;;;;34.92;14.55;;;4.60;97.00;;;;;;4871250;29;20040;-78
2022/01/14 00:06:44;;;;;;;31.20;13.35;;;4.50;97.00;;;;;;4870915;29;20051;-77
2022/01/14 00:09:13;;;;;;;30.55;14.02;;;4.50;97.00;;;;;;4885690;29;20460;-77
2022/01/14 00:11:49;;;;;;;33.00;14.25;;;4.50;97.00;;;;;;4886179;29;20166;-77
2022/01/14 00:16:52;;;;;;;32.83;15.48;;;4.50;97.00;;;;;;4886880;29;20138;-78
2022/01/14 00:19:19;;;;;;;28.48;14.00;;;4.50;97.00;;;;;;4918586;29;20049;-78
2022/01/14 00:21:46;;;;;;;33.90;14.77;;;4.50;97.30;;;;;;4886053;29;20048;-77
2022/01/14 00:33:18;;;;;;;25.83;11.90;;;4.40;97.10;;;;;;4890701;29;20051;-77
2022/01/14 00:35:15;;;;;;;28.45;11.88;;;4.40;97.10;;;;;;4874059;29;20492;-77
2022/01/14 00:37:42;;;;;;;27.98;12.23;;;4.40;97.10;;;;;;4885916;29;20469;-78
2022/01/14 00:40:10;;;;;;;30.15;12.50;;;4.40;97.10;;;;;;4855118;29;20107;-77
2022/01/14 00:42:37;;;;;;;30.55;11.70;;;4.40;97.10;;;;;;4870428;29;20480;-78
2022/01/14 00:45:07;;;;;;;27.67;11.30;;;4.50;97.10;;;;;;4885703;29;20492;-77
2022/01/14 00:47:37;;;;;;;29.65;12.00;;;4.50;97.10;;;;;;4900935;29;20044;-78
2022/01/14 00:50:10;;;;;;;30.95;12.07;;;4.50;97.10;;;;;;4904952;29;20135;-78
2022/01/14 00:52:39;;;;;;;25.75;11.65;;;4.50;97.10;;;;;;4907296;29;20040;-77
2022/01/14 00:55:09;;;;;;;23.35;10.98;;;4.50;97.10;;;;;;4903601;29;20047;-78
2022/01/14 01:00:24;;;;;;;22.52;9.50;;;4.50;97.10;;;;;;4893587;29;20486;-78
2022/01/14 01:02:52;;;;;;;23.13;9.30;;;4.60;97.10;;;;;;4907809;29;20052;-77
2022/01/14 01:05:19;;;;;;;22.40;9.98;;;4.60;97.10;;;;;;4886651;29;20044;-77
2022/01/14 01:07:58;;;;;;;22.00;8.82;;;4.60;97.10;;;;;;4885284;29;20485;-78
2022/01/14 01:10:26;;;;;;;18.90;8.38;;;4.60;97.10;;;;;;4884898;29;20051;-78
2022/01/14 01:12:58;;;;;;;26.33;10.48;;;4.60;97.10;;;;;;4869705;29;20047;-78
2022/01/14 01:15:25;;;;;;;23.95;9.65;;;4.60;97.10;;;;;;4870359;29;20044;-78
2022/01/14 01:17:52;;;;;;;26.45;11.52;;;4.60;97.10;;;;;;4869650;29;20059;-77
2022/01/14 01:20:19;;;;;;;30.17;12.35;;;4.60;97.00;;;;;;4885014;29;20047;-77
2022/01/14 01:22:48;;;;;;;33.97;14.82;;;4.60;97.00;;;;;;4869479;29;20055;-77
2022/01/14 01:25:37;;;;;;;27.60;12.20;;;4.60;97.00;;;;;;4886701;29;20044;-78
2022/01/14 01:28:04;;;;;;;37.15;14.45;;;4.60;97.10;;;;;;4856015;29;20139;-77
2022/01/14 01:33:03;;;;;;;27.65;12.73;;;4.60;97.00;;;;;;4884916;29;20051;-78
2022/01/14 01:35:31;;;;;;;27.95;12.60;;;4.60;97.10;;;;;;4884936;29;20056;-78
2022/01/14 01:37:58;;;;;;;24.33;11.10;;;4.60;97.10;;;;;;4884882;29;20071;-78
2022/01/14 01:40:27;;;;;;;31.45;12.73;;;4.60;97.10;;;;;;4869308;29;20067;-78
2022/01/14 01:42:57;;;;;;;34.83;13.48;;;4.60;97.10;;;;;;4900118;29;20185;-78
2022/01/14 01:45:26;;;;;;;28.30;12.45;;;4.60;97.10;;;;;;4900227;29;20044;-78
2022/01/14 01:47:54;;;;;;;33.95;14.02;;;4.60;97.10;;;;;;4885094;29;20040;-78
2022/01/14 01:50:25;;;;;;;36.58;13.20;;;4.50;97.00;;;;;;4899832;29;20104;-78
2022/01/14 01:52:53;;;;;;;31.35;13.95;;;4.50;97.00;;;;;;4899755;29;20149;-78
2022/01/14 01:55:22;;;;;;;32.30;13.15;;;4.50;97.00;;;;;;4869026;29;20044;-78
2022/01/14 01:57:51;;;;;;;29.92;12.27;;;4.50;97.00;;;;;;4884249;29;20048;-78
2022/01/14 02:00:24;;;;;;;27.20;10.95;;;4.50;97.00;;;;;;4884547;29;20484;-78
2022/01/14 02:02:54;;;;;;;23.15;9.63;;;4.50;97.10;;;;;;4884637;29;20054;-78
2022/01/14 02:05:22;;;;;;;22.58;10.73;;;4.50;97.10;;;;;;4900109;29;20496;-78
2022/01/14 02:07:50;;;;;;;31.20;12.35;;;4.60;97.10;;;;;;4884099;29;20699;-78
2022/01/14 02:10:17;;;;;;;38.78;14.25;;;4.50;97.00;;;;;;4898292;29;20046;-78
2022/01/14 02:12:51;;;;;;;36.97;14.95;;;4.50;97.00;;;;;;4916496;29;20128;-78
2022/01/14 02:15:30;;;;;;;33.38;15.85;;;4.50;97.00;;;;;;4884404;29;20055;-77
2022/01/14 02:23:16;;;;;;;40.47;17.05;;;4.40;96.90;;;;;;4899628;29;20056;-78
2022/01/14 02:25:45;;;;;;;37.08;17.13;;;4.40;97.00;;;;;;4916447;29;20075;-78
2022/01/14 02:28:16;;;;;;;44.28;17.65;;;4.40;97.00;;;;;;4899744;29;20052;-78
2022/01/14 02:30:45;;;;;;;37.80;16.88;;;4.50;97.00;;;;;;4899511;29;20044;-77
2022/01/14 02:33:14;;;;;;;39.33;15.90;;;4.40;97.00;;;;;;4901090;29;20048;-78
2022/01/14 02:35:45;;;;;;;40.97;18.05;;;4.40;97.00;;;;;;4872938;29;20127;-78
2022/01/14 02:38:14;;;;;;;36.92;15.30;;;4.40;97.00;;;;;;4903634;29;20052;-78
2022/01/14 02:40:41;;;;;;;33.70;14.15;;;4.40;97.00;;;;;;4887702;29;20052;-78
2022/01/14 02:43:14;;;;;;;35.17;14.00;;;4.40;97.00;;;;;;4887772;29;20047;-77
2022/01/14 02:45:46;;;;;;;33.40;15.30;;;4.30;97.00;;;;;;4903079;29;20475;-78
2022/01/14 02:48:14;;;;;;;33.75;14.07;;;4.40;97.10;;;;;;4903007;29;20055;-77
2022/01/14 02:50:53;;;;;;;31.60;14.32;;;4.40;97.10;;;;;;4872383;29;20048;-77
2022/01/14 02:56:05;;;;;;;33.50;13.63;;;4.40;97.10;;;;;;4902752;29;20075;-78
2022/01/14 02:58:35;;;;;;;30.70;12.80;;;4.30;97.00;;;;;;4902804;29;20046;-78
2022/01/14 03:01:06;;;;;;;35.10;13.63;;;4.40;97.10;;;;;;4886636;29;20494;-78
2022/01/14 03:03:34;;;;;;;28.75;13.10;;;4.40;97.10;;;;;;4902611;29;20044;-78
2022/01/14 03:06:03;;;;;;;25.13;11.32;;;4.40;97.10;;;;;;4919894;29;20066;-78
2022/01/14 03:08:32;;;;;;;23.52;10.35;;;4.40;97.30;;;;;;4887231;29;20405;-78
2022/01/14 03:11:06;;;;;;;24.33;11.07;;;4.40;97.10;;;;;;4886932;29;20044;-78
2022/01/14 03:13:34;;;;;;;27.83;12.63;;;4.40;97.10;;;;;;4902673;29;20408;-78
2022/01/14 03:16:02;;;;;;;31.25;13.90;;;4.40;97.10;;;;;;4886970;29;20096;-78
2022/01/14 03:18:36;;;;;;;26.83;11.57;;;4.40;97.00;;;;;;4896329;29;20500;-78
2022/01/14 03:21:12;;;;;;;29.45;12.13;;;4.40;97.00;;;;;;4886956;29;20052;-78
2022/01/14 03:23:47;;;;;;;30.08;11.88;;;4.40;97.10;;;;;;4886833;29;20517;-78
2022/01/14 03:26:17;;;;;;;24.77;11.20;;;4.40;97.10;;;;;;4902628;29;20052;-77
2022/01/14 03:28:46;;;;;;;26.20;11.40;;;4.40;97.10;;;;;;4902767;29;20065;-78
2022/01/14 03:31:13;;;;;;;25.90;10.68;;;4.40;97.10;;;;;;4886970;29;20179;-78
2022/01/14 03:33:41;;;;;;;20.15;8.70;;;4.40;97.10;;;;;;4886917;29;20422;-78
2022/01/14 03:36:09;;;;;;;20.38;9.45;;;4.40;97.10;;;;;;4886805;29;20500;-78
2022/01/14 03:38:36;;;;;;;18.58;8.38;;;4.40;97.10;;;;;;4902174;29;20420;-78
2022/01/14 03:41:04;;;;;;;23.85;10.60;;;4.40;97.10;;;;;;4902533;29;20051;-78
2022/01/14 03:43:32;;;;;;;28.30;11.38;;;4.40;97.10;;;;;;4901865;29;20058;-78
2022/01/14 03:45:59;;;;;;;27.70;12.68;;;4.40;97.00;;;;;;4885756;29;20524;-77
2022/01/14 03:48:26;;;;;;;28.42;12.27;;;4.40;97.00;;;;;;4902256;29;20076;-78
2022/01/14 03:50:53;;;;;;;25.60;11.02;;;4.40;97.00;;;;;;4871252;29;20051;-78
2022/01/14 03:53:21;;;;;;;24.60;12.15;;;4.40;97.00;;;;;;4901775;29;20112;-78
2022/01/14 03:55:51;;;;;;;25.20;12.27;;;4.40;97.00;;;;;;4887357;29;20056;-78
2022/01/14 03:58:38;;;;;;;24.10;11.02;;;4.40;97.00;;;;;;4901730;29;20059;-78
2022/01/14 04:01:06;;;;;;;27.75;11.38;;;4.40;97.00;;;;;;4886080;29;20139;-78
2022/01/14 04:03:34;;;;;;;23.88;11.40;;;4.40;97.00;;;;;;4901882;29;20048;-78
2022/01/14 04:06:10;;;;;;;26.58;11.82;;;4.40;97.10;;;;;;4886657;29;20261;-78
2022/01/14 04:08:38;;;;;;;34.42;13.38;;;4.40;97.00;;;;;;4901730;29;20131;-78
2022/01/14 04:11:07;;;;;;;29.13;12.45;;;4.40;97.00;;;;;;4886419;29;20048;-78
2022/01/14 04:13:44;;;;;;;28.80;12.20;;;4.40;97.00;;;;;;4886170;29;20047;-78
2022/01/14 04:16:12;;;;;;;25.13;11.38;;;4.30;97.00;;;;;;4903104;29;20044;-78
2022/01/14 04:18:40;;;;;;;26.95;12.73;;;4.30;97.00;;;;;;4885992;29;20048;-78
2022/01/14 04:21:07;;;;;;;33.83;13.57;;;4.30;97.00;;;;;;4912768;29;20044;-78
2022/01/14 04:23:34;;;;;;;28.33;13.20;;;4.30;97.00;;;;;;4922548;29;20048;-78
2022/01/14 04:26:02;;;;;;;32.75;14.35;;;4.30;97.00;;;;;;4902310;29;20040;-78
2022/01/14 04:28:33;;;;;;;30.15;13.73;;;4.30;97.00;;;;;;4886755;29;20076;-78
2022/01/14 04:31:00;;;;;;;36.10;13.85;;;4.30;97.30;;;;;;4902524;29;20530;-78
2022/01/14 04:33:29;;;;;;;34.33;15.43;;;4.30;97.00;;;;;;4886453;29;20060;-79
2022/01/14 04:35:58;;;;;;;32.00;13.00;;;4.30;97.00;;;;;;4901221;29;20048;-78
2022/01/14 04:38:28;;;;;;;32.97;13.00;;;4.30;97.00;;;;;;4901143;29;20409;-78
2022/01/14 04:40:55;;;;;;;30.45;12.95;;;4.30;97.00;;;;;;4900997;29;20044;-78
2022/01/14 04:43:23;;;;;;;33.13;13.40;;;4.30;97.00;;;;;;4885557;29;20075;-79
2022/01/14 04:46:35;;;;;;;28.88;13.77;;;4.20;97.00;;;;;;4901009;29;20044;-78
2022/01/14 04:48:41;;;;;;;56.83;15.32;;;4.30;97.00;;;;;;4900783;29;20131;-78
2022/01/14 04:51:09;;;;;;;32.70;13.50;;;4.20;97.00;;;;;;4917452;29;20040;-78
2022/01/14 04:53:37;;;;;;;25.40;11.75;;;4.30;97.10;;;;;;4885251;29;20138;-78
2022/01/14 04:56:05;;;;;;;27.60;12.88;;;4.30;97.00;;;;;;4884517;29;20104;-79
2022/01/14 04:58:33;;;;;;;26.80;11.95;;;4.30;97.00;;;;;;4900593;29;20051;-78
2022/01/14 05:01:00;;;;;;;24.63;10.73;;;4.30;97.00;;;;;;4884809;29;20052;-78
2022/01/14 05:03:27;;;;;;;26.08;11.65;;;4.30;97.00;;;;;;4884694;29;20054;-78
2022/01/14 05:05:57;;;;;;;29.63;12.27;;;4.30;97.00;;;;;;4899845;29;20063;-78
2022/01/14 05:08:34;;;;;;;31.33;13.60;;;4.30;97.00;;;;;;4884865;29;20048;-78
2022/01/14 05:11:21;;;;;;;26.38;11.52;;;4.30;97.00;;;;;;4881531;29;21684;-78
2022/01/14 05:13:48;;;;;;;26.77;10.45;;;4.30;97.00;;;;;;4879930;29;20063;-78
2022/01/14 05:16:15;;;;;;;31.00;12.65;;;4.30;97.00;;;;;;4885604;29;20234;-78
2022/01/14 05:18:42;;;;;;;31.55;11.88;;;4.30;97.00;;;;;;4885721;29;20202;-78
2022/01/14 05:21:10;;;;;;;26.63;12.20;;;4.30;97.00;;;;;;4870264;29;20051;-79
2022/01/14 05:23:37;;;;;;;31.02;12.43;;;4.30;97.00;;;;;;4884688;29;20143;-78
2022/01/14 05:26:04;;;;;;;21.50;9.90;;;4.40;97.10;;;;;;4869330;29;20051;-78
2022/01/14 05:28:31;;;;;;;28.25;11.25;;;4.40;97.10;;;;;;4868721;29;20044;-79
2022/01/14 05:30:59;;;;;;;24.13;10.35;;;4.40;97.10;;;;;;4900542;29;20126;-78
2022/01/14 05:33:26;;;;;;;19.50;7.80;;;4.40;97.10;;;;;;4884795;29;20048;-78
2022/01/14 05:35:53;;;;;;;19.38;8.18;;;4.40;97.10;;;;;;4917180;29;20044;-79
2022/01/14 05:38:20;;;;;;;21.40;9.85;;;4.40;97.10;;;;;;4900201;29;20067;-79
2022/01/14 05:40:47;;;;;;;20.67;8.40;;;4.40;97.10;;;;;;4917011;29;20119;-78
2022/01/14 05:43:14;;;;;;;20.40;8.60;;;4.40;97.10;;;;;;4884691;29;20099;-79
2022/01/14 05:45:41;;;;;;;19.92;8.57;;;4.50;97.10;;;;;;4900020;29;20131;-79
2022/01/14 05:48:27;;;;;;;22.00;9.57;;;4.50;97.10;;;;;;4868990;29;20048;-78
2022/01/14 05:51:11;;;;;;;19.17;9.45;;;4.50;97.10;;;;;;4889050;29;20393;-78
2022/01/14 05:53:41;;;;;;;16.52;6.72;;;4.50;97.10;;;;;;4868994;29;20099;-79
2022/01/14 05:56:08;;;;;;;17.15;7.32;;;4.50;97.10;;;;;;4884623;29;20100;-78
2022/01/14 05:58:36;;;;;;;26.35;10.75;;;4.50;97.10;;;;;;4884249;29;20056;-79
2022/01/14 06:01:03;;;;;;;18.85;9.13;;;4.50;97.00;;;;;;4900158;29;20048;-79
2022/01/14 06:03:30;;;;;;;21.95;9.63;;;4.50;97.20;;;;;;4884054;29;20135;-78
2022/01/14 06:05:57;;;;;;;21.10;8.85;;;4.50;97.00;;;;;;4884790;29;20044;-78
2022/01/14 06:08:24;;;;;;;22.23;9.30;;;4.50;97.00;;;;;;4883483;29;20159;-78
2022/01/14 06:10:51;;;;;;;19.92;8.70;;;4.50;97.00;;;;;;4884239;29;20047;-78
2022/01/14 06:13:18;;;;;;;22.00;9.93;;;4.50;97.00;;;;;;4884361;29;20512;-78
2022/01/14 06:15:46;;;;;;;21.83;9.60;;;4.50;97.00;;;;;;4899931;29;20048;-78
2022/01/14 06:18:16;;;;;;;21.20;9.85;;;4.50;97.00;;;;;;4884413;29;20519;-78
2022/01/14 06:20:43;;;;;;;17.55;8.50;;;4.50;97.00;;;;;;4884241;29;20127;-79
2022/01/14 06:23:12;;;;;;;18.23;7.97;;;4.50;97.10;;;;;;4884059;29;20408;-78
2022/01/14 06:25:42;;;;;;;14.93;7.05;;;4.50;97.10;;;;;;4884375;29;20508;-79
2022/01/14 06:28:10;;;;;;;15.18;6.45;;;4.50;97.10;;;;;;4884041;29;20048;-79
2022/01/14 06:30:37;;;;;;;14.38;6.32;;;4.60;97.10;;;;;;4883879;29;20381;-79
2022/01/14 06:33:04;;;;;;;19.83;8.95;;;4.60;97.10;;;;;;4884090;29;20459;-79
2022/01/14 06:35:31;;;;;;;21.63;9.05;;;4.60;97.00;;;;;;4916410;29;20074;-79
2022/01/14 06:38:00;;;;;;;20.55;10.27;;;4.60;97.00;;;;;;4899112;29;20421;-79
2022/01/14 06:40:31;;;;;;;21.90;10.15;;;4.60;97.00;;;;;;4884249;29;20496;-79
2022/01/14 06:42:58;;;;;;;25.77;11.68;;;4.50;97.00;;;;;;4884031;29;20056;-79
2022/01/14 06:45:25;;;;;;;22.60;9.82;;;4.50;97.20;;;;;;4883687;29;20559;-79
2022/01/14 06:47:53;;;;;;;19.63;8.57;;;4.50;97.00;;;;;;4883879;29;20056;-83
2022/01/14 06:50:24;;;;;;;25.02;10.50;;;4.50;97.00;;;;;;4884576;29;20378;-82
2022/01/14 06:52:51;;;;;;;18.85;9.90;;;4.50;97.00;;;;;;4899304;29;20056;-82
2022/01/14 06:55:19;;;;;;;23.10;9.10;;;4.50;97.00;;;;;;4899134;29;20139;-79
2022/01/14 06:57:46;;;;;;;22.88;9.85;;;4.50;97.00;;;;;;4883638;29;20056;-79
2022/01/14 07:00:16;;;;;;;22.92;11.07;;;4.50;97.10;;;;;;4899464;29;20044;-79
2022/01/14 07:02:44;;;;;;;19.30;8.77;;;4.50;97.10;;;;;;4916052;29;20111;-86
2022/01/14 07:05:11;;;;;;;22.55;10.27;;;4.50;97.10;;;;;;4899057;29;20080;-82
2022/01/14 07:07:39;;;;;;;26.35;11.95;;;4.50;97.10;;;;;;4898428;29;20047;-85
2022/01/14 07:10:15;;;;;;;28.08;11.88;;;4.50;97.00;;;;;;4884305;29;20515;-85
2022/01/14 07:12:44;;;;;;;27.60;12.23;;;4.50;97.00;;;;;;4883519;29;20048;-85
2022/01/14 07:15:14;;;;;;;20.00;9.13;;;4.50;97.10;;;;;;4899061;29;20124;-87
2022/01/14 07:17:42;;;;;;;29.25;12.65;;;4.50;97.10;;;;;;4884117;29;20493;-86
2022/01/14 07:20:13;;;;;;;26.50;12.43;;;4.50;97.10;;;;;;4908638;29;20052;-86
2022/01/14 07:22:43;;;;;;;27.25;12.35;;;4.50;97.10;;;;;;4920068;29;20116;-87
2022/01/14 07:25:17;;;;;;;23.35;11.27;;;4.40;97.00;;;;;;4919947;29;20052;-85
2022/01/14 07:27:47;;;;;;;26.25;12.82;;;4.50;97.10;;;;;;4902819;29;20052;-85
2022/01/14 07:30:15;;;;;;;21.30;10.40;;;4.40;97.10;;;;;;4917406;29;20052;-85
2022/01/14 07:32:43;;;;;;;21.08;10.23;;;4.40;97.00;;;;;;4899077;29;20166;-85
2022/01/14 07:35:11;;;;;;;32.08;13.43;;;4.40;97.10;;;;;;4911017;29;20523;-85
2022/01/14 07:37:38;;;;;;;23.30;11.43;;;4.40;97.10;;;;;;4887181;29;20040;-86
2022/01/14 07:40:06;;;;;;;19.38;9.73;;;4.40;97.10;;;;;;4887058;29;20495;-86
2022/01/14 07:42:34;;;;;;;24.33;10.88;;;4.40;97.10;;;;;;4887157;29;20044;-84
2022/01/14 07:45:01;;;;;;;23.23;10.15;;;4.40;97.10;;;;;;4886817;29;20487;-81
2022/01/14 07:47:28;;;;;;;22.48;10.50;;;4.40;97.10;;;;;;4885977;29;20119;-81
2022/01/14 07:49:56;;;;;;;25.90;10.43;;;4.40;97.10;;;;;;4886567;29;20131;-81
2022/01/14 07:52:23;;;;;;;25.92;11.20;;;4.40;97.10;;;;;;4887437;29;20067;-82
2022/01/14 07:54:50;;;;;;;25.50;10.80;;;4.40;97.30;;;;;;4885798;29;20040;-82
2022/01/14 07:57:18;;;;;;;24.83;10.95;;;4.40;97.10;;;;;;4870350;29;20063;-81
2022/01/14 07:59:46;;;;;;;19.88;10.15;;;4.40;97.10;;;;;;4901416;29;20036;-81
2022/01/14 08:02:13;;;;;;;16.73;9.15;;;4.40;97.10;;;;;;4886463;29;20051;-81
2022/01/14 08:04:41;;;;;;;20.35;8.60;;;4.40;97.30;;;;;;4901958;29;20095;-81
2022/01/14 08:07:08;;;;;;;18.10;9.65;;;4.40;97.10;;;;;;4901820;29;20044;-81
2022/01/14 08:09:41;;;;;;;19.52;9.05;;;4.40;97.10;;;;;;4886239;29;20119;-82
2022/01/14 08:12:10;;;;;;;23.08;10.95;;;4.50;97.10;;;;;;4901908;29;20051;-81
2022/01/14 08:14:37;;;;;;;24.42;11.68;;;4.50;97.10;;;;;;4871065;29;20053;-81
2022/01/14 08:17:08;;;;;;;26.08;11.63;;;4.50;97.10;;;;;;4886224;29;20052;-81
2022/01/14 08:19:35;;;;;;;26.17;11.88;;;4.50;97.10;;;;;;4901857;29;20381;-81
2022/01/14 08:22:05;;;;;;;23.83;10.85;;;4.50;97.10;;;;;;4886170;29;20071;-81
2022/01/14 08:24:33;;;;;;;18.33;9.20;;;4.50;97.10;;;;;;4901733;29;20100;-81
2022/01/14 08:27:01;;;;;;;18.48;8.85;;;4.50;97.10;;;;;;4870779;29;20055;-82
2022/01/14 08:29:28;;;;;;;18.80;8.65;;;4.50;97.10;;;;;;4870553;29;20044;-81
2022/01/14 08:31:55;;;;;;;21.75;9.15;;;4.60;97.10;;;;;;4869649;29;20048;-81
2022/01/14 08:34:27;;;;;;;19.88;8.88;;;4.60;97.10;;;;;;4885537;29;20143;-81
2022/01/14 08:36:57;;;;;;;17.75;8.57;;;4.60;97.10;;;;;;4886645;29;20104;-81
2022/01/14 08:39:24;;;;;;;20.90;9.75;;;4.60;97.10;;;;;;4900948;29;20699;-81
2022/01/14 08:41:51;;;;;;;17.02;8.52;;;4.60;97.00;;;;;;4870158;29;20048;-81
2022/01/14 08:44:19;;;;;;;22.58;8.65;;;4.60;97.10;;;;;;4885608;29;20449;-81
2022/01/14 08:46:50;;;;;;;14.90;7.93;;;4.60;97.00;;;;;;4886717;29;20067;-82
2022/01/14 08:49:17;;;;;;;15.95;7.47;;;4.60;97.00;;;;;;4870244;29;20056;-81
2022/01/14 08:51:44;;;;;;;15.30;7.20;;;4.60;97.00;;;;;;4886484;29;20465;-81
2022/01/14 08:54:11;;;;;;;14.38;6.60;;;4.70;97.10;;;;;;4903910;29;20064;-81
2022/01/14 08:56:38;;;;;;;15.73;7.28;;;4.70;97.10;;;;;;4888512;29;20051;-81
2022/01/14 08:59:05;;;;;;;16.05;7.00;;;4.70;97.00;;;;;;4919623;29;20055;-80
2022/01/14 09:01:34;;;;;;;21.27;8.55;;;4.70;97.00;;;;;;4904212;29;20078;-81
2022/01/14 09:04:02;;;;;;;21.13;8.77;;;4.80;97.00;;;;;;4888634;29;20054;-81
2022/01/14 09:06:29;;;;;;;18.95;8.00;;;4.80;97.00;;;;;;4888897;29;20039;-81
2022/01/14 09:08:56;;;;;;;18.95;8.60;;;4.70;96.90;;;;;;4888285;29;20050;-81
2022/01/14 09:11:23;;;;;;;18.30;8.07;;;4.70;97.00;;;;;;4903855;29;20043;-81
2022/01/14 09:13:50;;;;;;;18.33;8.60;;;4.80;97.00;;;;;;4888329;29;20091;-80
2022/01/14 09:16:20;;;;;;;15.70;7.90;;;4.80;97.20;;;;;;4903767;29;20445;-81
2022/01/14 09:18:50;;;;;;;16.40;7.55;;;4.80;97.00;;;;;;4903119;29;20051;-80
2022/01/14 09:21:21;;;;;;;18.23;8.27;;;4.80;97.00;;;;;;4888255;29;20055;-81
2022/01/14 09:23:51;;;;;;;19.00;9.60;;;4.80;97.00;;;;;;4889085;29;20500;-80
2022/01/14 09:26:27;;;;;;;16.30;8.20;;;4.80;97.00;;;;;;4903749;29;20047;-81
2022/01/14 09:28:55;;;;;;;13.82;7.32;;;4.90;97.00;;;;;;4903276;29;20460;-81
2022/01/14 09:31:22;;;;;;;12.73;6.93;;;4.90;97.00;;;;;;4936084;29;20468;-81
2022/01/14 09:33:50;;;;;;;12.52;6.38;;;4.90;97.00;;;;;;4888037;29;20572;-81
2022/01/14 09:36:17;;;;;;;14.20;5.93;;;4.90;96.90;;;;;;4903424;29;20500;-81
2022/01/14 09:38:47;;;;;;;12.30;5.80;;;5.00;96.90;;;;;;4888408;29;20563;-81
2022/01/14 09:41:18;;;;;;;16.33;6.32;;;5.00;96.90;;;;;;4919100;29;20050;-81
2022/01/14 09:43:45;;;;;;;16.83;8.25;;;5.00;96.90;;;;;;4918770;29;20443;-81
2022/01/14 09:46:12;;;;;;;15.00;7.70;;;5.00;96.80;;;;;;4887900;29;20142;-81
2022/01/14 09:48:40;;;;;;;13.18;6.03;;;5.00;96.90;;;;;;4918697;29;20056;-81
2022/01/14 09:51:08;;;;;;;15.70;6.25;;;5.00;96.90;;;;;;4887690;29;20044;-81
2022/01/14 09:53:35;;;;;;;12.32;5.90;;;5.00;96.90;;;;;;4918946;29;20122;-81
2022/01/14 09:56:03;;;;;;;16.05;8.10;;;5.10;96.90;;;;;;4918842;29;20032;-82
2022/01/14 09:58:36;;;;;;;15.57;7.07;;;5.10;96.90;;;;;;4918336;29;20051;-81
2022/01/14 10:01:10;;;;;;;15.98;7.53;;;5.10;96.80;;;;;;4918987;29;20123;-81
2022/01/14 10:03:55;;;;;;;12.25;6.10;;;5.10;96.80;;;;;;4918720;29;20043;-81
2022/01/14 10:06:35;;;;;;;13.52;6.03;;;5.10;96.80;;;;;;4918609;29;20503;-81
2022/01/14 10:09:24;;;;;;;16.85;7.07;;;5.10;96.80;;;;;;4918551;29;20048;-80
2022/01/14 10:12:08;;;;;;;17.80;6.78;;;5.20;96.90;;;;;;4935659;29;20044;-80
2022/01/14 10:14:40;;;;;;;20.23;7.55;;;5.20;96.80;;;;;;4935541;29;20047;-81
2022/01/14 10:17:11;;;;;;;14.55;7.93;;;5.10;96.80;;;;;;4918680;29;20059;-81
2022/01/14 10:19:41;;;;;;;14.05;5.85;;;5.10;96.80;;;;;;4902786;29;20103;-81
2022/01/14 10:22:22;;;;;;;17.33;6.57;;;5.20;96.80;;;;;;4918950;29;20043;-80
2022/01/14 10:25:15;;;;;;;12.93;6.10;;;5.20;96.80;;;;;;4918424;29;20448;-80
2022/01/14 10:27:48;;;;;;;13.80;5.40;;;5.20;96.70;;;;;;4901580;29;20155;-80
2022/01/14 10:30:28;;;;;;;12.90;6.40;;;5.30;96.80;;;;;;4918126;29;20052;-80
2022/01/14 10:33:03;;;;;;;12.75;6.40;;;5.30;96.80;;;;;;4918372;29;20356;-82
2022/01/14 10:35:37;;;;;;;15.15;6.72;;;5.20;96.70;;;;;;4918386;29;20142;-76
2022/01/14 10:38:06;;;;;;;14.77;7.68;;;5.30;96.70;;;;;;4931470;29;20457;-77
2022/01/14 10:40:38;;;;;;;15.38;7.15;;;5.30;96.80;;;;;;4916468;29;20044;-78
2022/01/14 10:43:10;;;;;;;16.20;8.23;;;5.30;96.70;;;;;;4916215;29;20096;-78
2022/01/14 10:45:55;;;;;;;20.42;7.85;;;5.30;96.70;;;;;;4915276;29;20457;-81
2022/01/14 10:48:31;;;;;;;17.10;8.82;;;5.30;96.70;;;;;;4883688;29;20040;-78
2022/01/14 10:51:01;;;;;;;14.32;6.90;;;5.30;96.70;;;;;;4899294;29;20048;-77
2022/01/14 10:53:35;;;;;;;20.63;8.88;;;5.30;96.70;;;;;;4899697;29;20135;-78
2022/01/14 10:56:10;;;;;;;19.85;8.50;;;5.30;96.60;;;;;;4903315;29;20144;-79
2022/01/14 10:58:42;;;;;;;16.85;8.02;;;5.30;96.60;;;;;;4903231;29;20044;-77
2022/01/14 11:01:13;;;;;;;20.50;8.57;;;5.30;96.60;;;;;;4903263;29;20054;-77
2022/01/14 11:03:46;;;;;;;17.63;7.75;;;5.30;96.60;;;;;;4903721;29;20060;-76
2022/01/14 11:06:31;;;;;;;23.00;10.57;;;5.30;96.60;;;;;;4903637;29;20488;-77
2022/01/14 11:09:00;;;;;;;16.03;6.87;;;5.30;96.60;;;;;;4887019;29;20142;-78
2022/01/14 11:11:33;;;;;;;13.10;7.03;;;5.30;96.60;;;;;;4919547;29;20281;-78
2022/01/14 11:14:01;;;;;;;11.98;6.72;;;5.30;96.70;;;;;;4902245;29;20056;-78
2022/01/14 11:16:28;;;;;;;17.35;7.53;;;5.30;96.60;;;;;;4902912;29;20215;-82
2022/01/14 11:18:58;;;;;;;14.25;6.45;;;5.30;96.60;;;;;;4887007;29;20164;-81
2022/01/14 11:24:20;;;;;;;15.68;8.52;;;5.40;96.60;;;;;;4889440;29;20594;-80
2022/01/14 11:26:50;;;;;;;16.50;8.43;;;5.40;96.60;;;;;;4902714;29;20048;-78
2022/01/14 11:29:20;;;;;;;15.57;7.55;;;5.40;96.60;;;;;;4902611;29;20385;-78
2022/01/14 11:31:58;;;;;;;15.77;7.13;;;5.40;96.60;;;;;;4902522;29;20100;-78
2022/01/14 11:34:40;;;;;;;18.30;7.78;;;5.40;96.60;;;;;;4902887;29;20046;-78
2022/01/14 11:37:34;;;;;;;18.00;7.93;;;5.40;96.50;;;;;;4902682;29;20040;-78
2022/01/14 11:40:08;;;;;;;16.95;8.50;;;5.50;96.50;;;;;;4879704;29;20417;-79
2022/01/14 11:42:59;;;;;;;16.75;8.10;;;5.40;96.50;;;;;;4899442;29;20062;-78
2022/01/14 11:45:39;;;;;;;17.55;7.85;;;5.50;96.50;;;;;;4886431;29;20051;-79
2022/01/14 11:48:07;;;;;;;13.45;5.80;;;5.50;96.50;;;;;;4902217;29;20046;-77
2022/01/14 11:50:37;;;;;;;18.48;7.90;;;5.50;96.50;;;;;;4871092;29;20534;-77
2022/01/14 11:53:05;;;;;;;16.55;7.68;;;5.50;96.50;;;;;;4902060;29;20056;-77
2022/01/14 11:55:32;;;;;;;18.33;9.35;;;5.50;96.50;;;;;;4886092;29;20051;-77
2022/01/14 11:58:03;;;;;;;21.60;10.85;;;5.50;96.40;;;;;;4901867;29;20130;-78
2022/01/14 12:00:30;;;;;;;19.50;8.63;;;5.50;96.40;;;;;;4886383;29;20388;-78
2022/01/14 12:03:20;;;;;;;14.75;7.22;;;5.50;96.50;;;;;;4902096;29;20067;-79
2022/01/14 12:05:54;;;;;;;17.70;8.02;;;5.60;96.50;;;;;;4889512;29;20056;-78
2022/01/14 12:08:32;;;;;;;21.48;9.90;;;5.60;96.50;;;;;;4885877;29;20587;-79
2022/01/14 12:11:05;;;;;;;19.10;9.95;;;5.60;96.40;;;;;;4901354;29;20483;-80
2022/01/14 12:13:59;;;;;;;17.52;8.63;;;5.60;96.40;;;;;;4886031;29;20104;-82
2022/01/14 12:17:00;;;;;;;16.92;8.25;;;5.60;96.40;;;;;;4901672;29;20052;-81
2022/01/14 12:19:29;;;;;;;15.63;7.47;;;5.60;96.40;;;;;;4873815;29;20139;-81
2022/01/14 12:21:56;;;;;;;16.60;8.27;;;5.60;96.40;;;;;;4901404;29;20071;-81
2022/01/14 12:24:27;;;;;;;21.48;10.05;;;5.60;96.40;;;;;;4901501;29;20535;-80
2022/01/14 12:26:54;;;;;;;18.25;8.18;;;5.60;96.40;;;;;;4885953;29;20056;-81
2022/01/14 12:29:39;;;;;;;17.48;9.40;;;5.60;96.40;;;;;;4901432;29;20059;-80
2022/01/14 12:32:29;;;;;;;21.67;11.00;;;5.60;96.40;;;;;;4885354;29;20496;-80
2022/01/14 12:34:57;;;;;;;17.80;9.80;;;5.60;96.30;;;;;;4889438;29;20060;-77
2022/01/14 12:37:28;;;;;;;21.23;10.35;;;5.60;96.40;;;;;;4917283;29;20528;-77
2022/01/14 12:39:57;;;;;;;18.52;9.15;;;5.60;96.40;;;;;;4884682;29;20166;-77
2022/01/14 12:42:25;;;;;;;17.00;8.82;;;5.60;96.40;;;;;;4901351;29;20078;-77
2022/01/14 12:44:53;;;;;;;20.80;10.45;;;5.70;96.40;;;;;;4901125;29;20084;-78
2022/01/14 12:47:26;;;;;;;21.45;10.02;;;5.60;96.30;;;;;;4870517;29;20567;-78
2022/01/14 12:49:53;;;;;;;18.73;9.95;;;5.60;96.30;;;;;;4917589;29;20107;-78
2022/01/14 12:52:40;;;;;;;15.70;8.43;;;5.70;96.40;;;;;;4901207;29;20561;-76
2022/01/14 12:55:09;;;;;;;13.15;6.70;;;5.70;96.40;;;;;;4885067;29;20457;-77
2022/01/14 12:57:36;;;;;;;15.95;7.90;;;5.70;96.40;;;;;;4885177;29;20392;-76
2022/01/14 13:00:05;;;;;;;14.55;7.63;;;5.80;96.40;;;;;;4884561;29;20059;-77
2022/01/14 13:02:33;;;;;;;17.73;8.77;;;5.80;96.30;;;;;;4900012;29;20059;-76
2022/01/14 13:05:20;;;;;;;17.80;9.23;;;5.80;96.30;;;;;;4869395;29;20488;-77
2022/01/14 13:07:49;;;;;;;21.17;10.65;;;5.80;96.20;;;;;;4886276;29;20055;-88
2022/01/14 13:10:18;;;;;;;17.48;8.80;;;5.80;96.20;;;;;;4901314;29;20052;-82
2022/01/14 13:12:50;;;;;;;15.70;7.82;;;5.90;96.30;;;;;;4890511;29;20048;-78
2022/01/14 13:15:24;;;;;;;17.25;8.70;;;5.90;96.30;;;;;;4876974;29;20059;-80
2022/01/14 13:18:04;;;;;;;16.70;8.38;;;5.90;96.20;;;;;;4899775;29;20394;-78
2022/01/14 13:20:32;;;;;;;21.00;9.45;;;5.90;96.20;;;;;;4885996;29;20527;-81
2022/01/14 13:23:00;;;;;;;20.02;9.57;;;5.80;96.20;;;;;;4869429;29;20059;-81
2022/01/14 13:25:30;;;;;;;17.77;9.25;;;5.80;96.10;;;;;;4885139;29;20059;-81
2022/01/14 13:28:03;;;;;;;16.63;8.65;;;5.80;96.20;;;;;;4900360;29;20408;-79